EmailTwitter


Observations de surface / France / LFBO (07630)

Régions: Québec | Canada | États-Unis | Europe | France | UK | Ailleurs
Station
Affichage
Infos & localisation pour LFBO (07630) | Aide pour décoder les METARs

Observations prises le 2018-07-21 à 05H30 UTC à TOULOUSE/BLAGNAC, FR (LFBO)

Etat du ciel: couvert.

Température: 17.0 Celsius

Point de rosée: 15.0 Celsius

Humidité relative: 88%

Indice Humidex: 21.

Vents: Ouest à 11 km/h ou 6 noeuds.

Pression au niveau moyen de la mer: 101.70 kilopascals.

Visibilité horizontale: 6.21 milles terrestres ou 9.94 kilomètres.

Hauteur du plafond: 1280 mètres ( 4200 pieds ).

Observation METAR:

LFBO 210530Z AUTO 28006KT 9999 OVC042 17/15 Q1017 NOSIG=